Time;durP1;ratioP1;P1;durP2;ratioP2;P2;SDS_P1;SDS_P2;PMS_P1;PMS_P2;Temp;Humidity;BMP_temperature;BMP_pressure;BME280_temperature;BME280_humidity;BME280_pressure;Samples;Min_cycle;Max_cycle;Signal;HPM_P1;HPM_P2
2022/01/20 00:27:08;;;;;;;9.35;6.25;;;;;;;-1.56;75.85;100763.66;10136128;29;20402;-69
2022/01/20 00:32:12;;;;;;;9.07;5.65;;;;;;;-1.50;75.84;100755.53;10136580;29;20408;-69
2022/01/20 00:37:16;;;;;;;16.55;6.78;;;;;;;-1.29;76.15;100784.81;10135248;29;20136;-69
2022/01/20 00:42:18;;;;;;;10.40;6.07;;;;;;;-1.29;76.28;100769.19;10135670;29;20044;-69
2022/01/20 00:47:20;;;;;;;10.05;5.85;;;;;;;-1.78;75.96;100716.22;10134992;29;20079;-69
2022/01/20 00:52:21;;;;;;;10.63;6.00;;;;;;;-1.68;76.57;100725.25;10135852;29;20069;-69
2022/01/20 00:57:22;;;;;;;10.90;5.93;;;;;;;-1.62;77.10;100751.81;10132684;29;20517;-69
2022/01/20 01:02:23;;;;;;;9.68;6.63;;;;;;;-1.44;76.82;100759.56;10133658;29;20490;-69
2022/01/20 01:07:44;;;;;;;9.65;6.20;;;;;;;-1.51;77.57;100734.78;10134771;29;20128;-69
2022/01/20 01:13:09;;;;;;;9.25;5.93;;;;;;;-1.44;77.52;100756.97;10134590;29;20072;-69
2022/01/20 01:23:37;;;;;;;13.20;6.85;;;;;;;-2.26;77.33;100651.00;10133715;29;20052;-69
2022/01/20 01:28:41;;;;;;;9.07;6.18;;;;;;;-2.00;77.30;100688.72;10133449;29;20148;-69
2022/01/20 01:33:52;;;;;;;10.95;6.30;;;;;;;-2.06;77.46;100707.25;10134624;29;20144;-69
2022/01/20 01:38:54;;;;;;;11.43;6.53;;;;;;;-3.22;77.65;100509.34;10134310;29;20080;-69
2022/01/20 01:43:56;;;;;;;12.63;6.97;;;;;;;-1.61;78.15;100766.53;10133795;29;20104;-69
2022/01/20 01:48:57;;;;;;;9.85;6.40;;;;;;;-1.63;77.50;100770.13;10133439;29;20044;-69
2022/01/20 01:53:58;;;;;;;11.15;6.72;;;;;;;-1.64;78.08;100774.50;10133898;29;20060;-69
2022/01/20 01:58:59;;;;;;;11.18;6.82;;;;;;;-1.63;78.18;100780.56;10135124;29;20116;-69
2022/01/20 02:04:10;;;;;;;11.43;7.15;;;;;;;-1.65;78.51;100772.81;10157487;29;20044;-72
2022/01/20 02:09:31;;;;;;;12.80;6.75;;;;;;;-1.65;78.00;100788.44;10138333;29;20080;-69
2022/01/20 02:19:49;;;;;;;13.30;7.47;;;;;;;-2.07;78.49;100700.34;10179812;29;20040;-69
2022/01/20 02:24:50;;;;;;;14.52;7.70;;;;;;;-1.64;78.78;100745.84;10180336;29;20051;-69
2022/01/20 02:29:50;;;;;;;12.43;7.60;;;;;;;-2.14;78.03;100675.56;10178851;29;20070;-69
2022/01/20 02:34:51;;;;;;;11.63;7.45;;;;;;;-1.43;77.99;100790.78;10180441;29;20043;-69
2022/01/20 02:45:13;;;;;;;13.05;7.85;;;;;;;-1.32;78.76;100805.84;10178315;29;20095;-69
2022/01/20 02:50:14;;;;;;;11.20;6.78;;;;;;;-2.07;77.91;100690.75;10178404;29;20063;-69
2022/01/20 02:55:15;;;;;;;15.05;7.88;;;;;;;-1.43;78.92;100803.81;10178446;29;20040;-69
2022/01/20 03:00:16;;;;;;;12.43;7.88;;;;;;;-2.30;78.88;100659.91;10173061;29;20063;-69
2022/01/20 03:05:17;;;;;;;12.52;7.32;;;;;;;-1.21;79.28;100813.09;10146757;29;20402;-69
2022/01/20 03:10:18;;;;;;;10.02;6.95;;;;;;;-1.15;78.78;100820.59;10137813;29;20041;-70
2022/01/20 03:15:19;;;;;;;11.80;7.57;;;;;;;-1.19;78.35;100834.72;10140261;29;20048;-69
2022/01/20 03:20:20;;;;;;;14.63;7.20;;;;;;;-2.07;78.92;100682.13;10138029;29;20045;-69
2022/01/20 03:25:21;;;;;;;11.27;7.00;;;;;;;-1.58;78.53;100757.72;10137690;29;20044;-69
2022/01/20 03:30:23;;;;;;;13.50;7.63;;;;;;;-1.59;78.98;100756.00;10156453;29;20040;-69
2022/01/20 03:35:23;;;;;;;10.82;7.32;;;;;;;-1.22;79.75;100825.31;10177085;29;20051;-69
2022/01/20 03:40:24;;;;;;;12.23;6.32;;;;;;;-1.29;78.75;100812.66;10176752;29;20051;-70
2022/01/20 03:45:27;;;;;;;18.45;7.65;;;;;;;-1.88;79.16;100719.31;10175949;29;20067;-69
2022/01/20 03:55:47;;;;;;;13.20;7.47;;;;;;;-1.16;79.38;100839.78;10176555;29;20100;-69
2022/01/20 04:00:48;;;;;;;12.25;7.43;;;;;;;-1.24;80.12;100852.38;10174248;29;20040;-72
2022/01/20 04:05:56;;;;;;;11.25;7.20;;;;;;;-1.42;79.81;100826.34;10176638;29;20123;-68
2022/01/20 04:11:07;;;;;;;13.07;7.53;;;;;;;-1.45;80.54;100821.28;10172907;29;20036;-71
2022/01/20 04:16:13;;;;;;;13.77;7.78;;;;;;;-1.27;80.94;100852.53;10174362;29;20047;-71
2022/01/20 04:21:14;;;;;;;13.45;7.28;;;;;;;-1.81;80.81;100771.09;10135650;29;20049;-72
2022/01/20 04:26:15;;;;;;;12.13;6.55;;;;;;;-1.36;81.01;100860.81;10136275;29;20056;-69
2022/01/20 04:31:16;;;;;;;11.00;5.70;;;;;;;-2.92;80.49;100604.06;10135553;29;20458;-69
2022/01/20 04:36:18;;;;;;;10.35;6.28;;;;;;;-2.36;80.89;100694.03;10135966;29;20077;-68
2022/01/20 04:41:20;;;;;;;9.77;5.80;;;;;;;-1.39;80.48;100851.41;10141207;29;20556;-69
2022/01/20 04:46:34;;;;;;;9.13;5.60;;;;;;;-2.29;80.59;100724.03;10172199;29;20063;-70
2022/01/20 05:02:04;;;;;;;11.88;6.80;;;;;;;-1.62;80.51;100856.00;10173553;29;20421;-70
2022/01/20 05:07:07;;;;;;;10.40;5.82;;;;;;;-2.17;80.35;100754.63;10174196;29;20036;-70
2022/01/20 05:12:14;;;;;;;8.40;5.15;;;;;;;-1.66;80.59;100851.03;10174137;29;20040;-70
2022/01/20 05:17:15;;;;;;;9.90;6.30;;;;;;;-2.01;80.37;100801.56;10174158;29;20044;-70
2022/01/20 05:22:16;;;;;;;9.27;5.80;;;;;;;-1.45;81.16;100891.63;10172850;29;20051;-69
2022/01/20 05:27:17;;;;;;;12.07;6.75;;;;;;;-1.61;80.91;100869.91;10172465;29;20064;-70
2022/01/20 05:32:18;;;;;;;11.52;6.50;;;;;;;-1.56;81.44;100857.47;10174140;29;20047;-70
2022/01/20 05:37:19;;;;;;;10.30;5.90;;;;;;;-1.31;81.23;100892.72;10172904;29;20040;-70
2022/01/20 05:42:19;;;;;;;10.60;6.28;;;;;;;-1.16;80.95;100918.84;10172617;29;20052;-70
2022/01/20 05:47:27;;;;;;;10.55;5.95;;;;;;;-1.24;81.28;100891.47;10173184;29;20044;-70
2022/01/20 05:52:28;;;;;;;9.75;5.97;;;;;;;-1.09;81.51;100924.56;10172350;29;20560;-71
2022/01/20 05:57:29;;;;;;;10.90;6.85;;;;;;;-1.12;81.34;100916.91;10173028;29;20075;-71
2022/01/20 06:02:36;;;;;;;12.07;6.68;;;;;;;-1.86;80.49;100779.94;10171843;29;20068;-71
2022/01/20 06:07:37;;;;;;;9.65;6.22;;;;;;;-0.92;81.25;100914.09;10172549;29;20508;-71
2022/01/20 06:12:38;;;;;;;11.27;6.93;;;;;;;-1.60;80.27;100772.56;10172876;29;20071;-71
2022/01/20 06:17:39;;;;;;;9.35;6.28;;;;;;;-1.11;80.25;100857.78;10172542;29;20096;-71
2022/01/20 06:22:40;;;;;;;9.15;5.80;;;;;;;-0.76;80.63;100918.50;10172154;29;20047;-69
2022/01/20 06:27:42;;;;;;;10.32;6.22;;;;;;;-0.86;80.48;100893.84;10172692;29;20139;-70
2022/01/20 06:32:43;;;;;;;9.23;5.22;;;;;;;-0.89;80.47;100875.75;10172191;29;20297;-70
2022/01/20 06:37:44;;;;;;;11.30;6.47;;;;;;;-1.29;80.06;100797.84;10172009;29;20560;-70
2022/01/20 06:42:45;;;;;;;10.48;6.20;;;;;;;-0.47;79.38;100888.25;10172851;29;20071;-70
2022/01/20 06:47:46;;;;;;;12.70;7.45;;;;;;;-0.39;78.98;100906.94;10172087;29;20046;-70
2022/01/20 06:52:47;;;;;;;18.13;7.80;;;;;;;-0.27;78.81;100913.22;10171772;29;20095;-71
2022/01/20 06:57:48;;;;;;;17.35;7.40;;;;;;;-0.41;79.69;100913.19;10177761;29;20501;-71
2022/01/20 07:02:50;;;;;;;12.43;7.72;;;;;;;-2.09;79.16;100650.16;10177424;29;20142;-71
2022/01/20 07:07:51;;;;;;;13.05;7.60;;;;;;;-0.32;79.42;100894.41;10177738;29;20054;-71
2022/01/20 07:12:52;;;;;;;12.25;7.20;;;;;;;-0.19;78.34;100855.38;10177546;29;20044;-72
2022/01/20 07:17:52;;;;;;;15.60;7.97;;;;;;;0.62;76.83;100918.63;10176723;29;20040;-73
2022/01/20 07:22:53;;;;;;;10.57;6.22;;;;;;;0.83;76.25;100882.53;10177592;29;20044;-72
2022/01/20 07:27:54;;;;;;;12.60;8.00;;;;;;;0.82;75.28;100886.09;10177336;29;20138;-71
2022/01/20 07:32:55;;;;;;;12.73;7.70;;;;;;;0.52;76.51;100907.03;10177370;29;20556;-70
2022/01/20 07:37:56;;;;;;;10.73;7.97;;;;;;;0.45;76.44;100857.75;10176655;29;20131;-70
2022/01/20 07:42:57;;;;;;;12.23;7.78;;;;;;;0.06;75.16;100761.66;10175749;29;20500;-71
2022/01/20 07:47:58;;;;;;;10.38;7.55;;;;;;;0.90;75.21;100889.91;10176026;29;20044;-70
2022/01/20 07:52:58;;;;;;;18.30;8.38;;;;;;;-0.43;74.28;100633.13;10176723;29;20523;-70
2022/01/20 07:57:59;;;;;;;11.35;7.43;;;;;;;0.41;74.20;100746.44;10175896;29;20040;-70
2022/01/20 08:03:00;;;;;;;11.25;7.18;;;;;;;1.24;73.07;100882.63;10176175;29;20036;-71
2022/01/20 08:08:01;;;;;;;11.77;8.65;;;;;;;0.95;73.75;100852.16;10175345;29;20092;-71
2022/01/20 08:13:03;;;;;;;12.88;8.45;;;;;;;1.22;73.99;100902.81;10176493;29;20040;-71
2022/01/20 08:18:06;;;;;;;12.20;8.27;;;;;;;1.37;73.46;100899.22;10176200;29;20055;-71
2022/01/20 08:23:07;;;;;;;13.13;8.02;;;;;;;1.24;72.98;100876.56;10175232;29;20411;-71
2022/01/20 08:28:08;;;;;;;10.55;7.55;;;;;;;1.31;73.38;100909.25;10175561;29;20040;-73
2022/01/20 08:33:09;;;;;;;14.35;8.45;;;;;;;0.66;71.93;100748.41;10174988;29;20084;-71
2022/01/20 08:38:10;;;;;;;12.25;7.60;;;;;;;1.31;71.06;100813.25;10174950;29;20044;-72
2022/01/20 08:43:11;;;;;;;10.88;7.40;;;;;;;1.53;70.13;100832.84;10173585;29;20178;-72
2022/01/20 08:48:13;;;;;;;10.15;6.35;;;;;;;1.55;69.85;100851.91;10174106;29;20040;-73
2022/01/20 08:53:14;;;;;;;15.82;7.88;;;;;;;1.24;70.26;100793.63;10174997;29;20088;-73
2022/01/20 08:58:15;;;;;;;13.90;10.50;;;;;;;1.09;70.18;100732.66;10174245;29;20048;-71
2022/01/20 09:03:16;;;;;;;13.68;7.88;;;;;;;1.02;67.85;100741.00;10172463;29;20048;-71
2022/01/20 09:08:18;;;;;;;12.88;7.88;;;;;;;1.42;68.36;100848.38;10173319;29;20043;-72
2022/01/20 09:18:38;;;;;;;10.25;6.47;;;;;;;1.10;69.16;100804.13;10172719;29;20043;-71
2022/01/20 09:23:38;;;;;;;11.13;6.82;;;;;;;0.72;68.71;100717.56;10173317;29;20496;-71
2022/01/20 09:28:40;;;;;;;10.77;6.68;;;;;;;0.93;68.64;100728.47;10172677;29;20059;-72
2022/01/20 09:33:41;;;;;;;11.23;6.90;;;;;;;1.36;67.36;100829.50;10171806;29;20072;-71
2022/01/20 09:38:42;;;;;;;9.80;6.38;;;;;;;1.53;67.76;100841.53;10173247;29;20047;-72
2022/01/20 09:43:43;;;;;;;9.98;6.30;;;;;;;0.61;66.81;100685.13;10171672;29;20060;-73
2022/01/20 09:48:44;;;;;;;8.88;6.30;;;;;;;1.04;67.50;100791.44;10172749;29;20123;-72
2022/01/20 09:53:45;;;;;;;13.07;7.03;;;;;;;1.17;67.96;100818.53;10171842;29;20529;-72
2022/01/20 09:58:46;;;;;;;9.52;6.50;;;;;;;0.56;67.90;100707.25;10172920;29;20059;-71
2022/01/20 10:03:47;;;;;;;9.63;6.57;;;;;;;1.31;67.12;100802.78;10172646;29;20575;-71
2022/01/20 10:08:59;;;;;;;11.43;6.57;;;;;;;1.42;66.23;100799.47;10172496;29;20123;-71
2022/01/20 10:14:00;;;;;;;20.20;6.90;;;;;;;1.46;67.02;100802.72;10171856;29;20052;-71
2022/01/20 10:19:01;;;;;;;8.75;6.15;;;;;;;0.77;66.30;100674.53;10172172;29;20380;-72
2022/01/20 10:24:12;;;;;;;8.63;6.15;;;;;;;1.52;65.57;100768.31;10171710;29;20139;-71
2022/01/20 10:29:16;;;;;;;8.75;5.90;;;;;;;1.76;65.34;100726.56;10174904;29;20044;-71
2022/01/20 10:34:32;;;;;;;8.48;5.40;;;;;;;1.94;64.21;100745.47;10178641;29;20131;-71
2022/01/20 10:39:38;;;;;;;11.23;6.35;;;;;;;2.44;63.85;100767.41;10178632;29;20048;-71
2022/01/20 10:44:48;;;;;;;9.48;6.35;;;;;;;1.87;63.54;100686.56;10179165;29;20044;-71
2022/01/20 10:49:49;;;;;;;6.75;5.25;;;;;;;1.89;63.95;100718.75;10178277;29;20044;-72
2022/01/20 10:54:52;;;;;;;8.65;5.45;;;;;;;2.17;63.18;100768.34;10179179;29;20083;-71
2022/01/20 10:59:59;;;;;;;7.93;4.63;;;;;;;2.09;63.96;100773.25;10178123;29;20076;-72
2022/01/20 11:05:00;;;;;;;7.88;4.75;;;;;;;1.29;63.75;100644.19;10177527;29;20440;-73
2022/01/20 11:10:06;;;;;;;7.50;4.60;;;;;;;1.93;63.47;100778.69;10177002;29;20115;-71
2022/01/20 11:15:10;;;;;;;8.38;4.10;;;;;;;1.50;63.48;100775.44;10178640;29;20044;-71
2022/01/20 11:20:20;;;;;;;8.00;5.10;;;;;;;0.89;63.31;100668.50;10178060;29;20052;-73
2022/01/20 11:25:23;;;;;;;7.05;4.63;;;;;;;1.58;63.63;100791.47;10176951;29;20040;-72
2022/01/20 11:30:26;;;;;;;8.02;4.82;;;;;;;1.29;64.09;100781.09;10177324;29;20458;-71
2022/01/20 11:35:41;;;;;;;8.02;4.53;;;;;;;1.35;64.65;100791.19;10176359;29;20036;-74
2022/01/20 11:40:55;;;;;;;;;;;;;;;1.50;65.31;100791.97;10175683;29;20048;-72
2022/01/20 11:46:06;;;;;;;5.15;3.33;;;;;;;0.76;63.87;100719.09;10175804;29;19950;-72
2022/01/20 11:51:08;;;;;;;5.40;3.47;;;;;;;1.13;65.07;100786.44;10176798;29;20091;-71
2022/01/20 11:56:10;;;;;;;6.03;3.50;;;;;;;0.96;64.39;100773.63;10176486;29;20048;-72
2022/01/20 12:01:11;;;;;;;5.88;3.67;;;;;;;0.95;64.28;100790.22;10176460;29;20050;-72
2022/01/20 12:06:14;;;;;;;6.88;3.65;;;;;;;1.07;64.08;100817.41;10176227;29;20134;-72
2022/01/20 12:11:16;;;;;;;5.13;3.58;;;;;;;1.17;64.24;100815.91;10175693;29;20059;-72
2022/01/20 12:16:19;;;;;;;5.00;3.42;;;;;;;1.26;64.62;100815.31;10172877;29;20131;-72
2022/01/20 12:21:20;;;;;;;5.72;3.25;;;;;;;1.23;64.39;100812.06;10149854;29;20060;-73
2022/01/20 12:26:22;;;;;;;7.20;4.57;;;;;;;0.40;64.58;100682.06;10135968;29;20087;-72
2022/01/20 12:31:23;;;;;;;7.10;4.72;;;;;;;1.30;64.57;100829.88;10165208;29;20062;-71
2022/01/20 12:36:24;;;;;;;6.20;3.90;;;;;;;1.22;65.00;100826.91;10157287;29;20052;-70
2022/01/20 12:41:25;;;;;;;7.03;4.20;;;;;;;0.26;65.87;100678.59;10132882;29;20073;-75
2022/01/20 12:46:29;;;;;;;9.35;4.65;;;;;;;0.04;66.37;100689.53;10132710;29;20096;-72
2022/01/20 12:51:40;;;;;;;8.52;4.95;;;;;;;-0.31;67.41;100672.41;10148111;29;20058;-72
2022/01/20 12:56:44;;;;;;;8.93;5.65;;;;;;;0.31;68.58;100835.97;10157829;29;20126;-73
2022/01/20 13:01:46;;;;;;;7.55;5.05;;;;;;;0.21;69.10;100843.50;10168005;29;20095;-72
2022/01/20 13:06:59;;;;;;;8.45;4.97;;;;;;;0.05;70.51;100824.41;10169125;29;20040;-72
2022/01/20 13:12:02;;;;;;;11.00;6.20;;;;;;;-0.02;69.75;100811.72;10191228;29;20036;-73
2022/01/20 13:17:04;;;;;;;11.55;5.45;;;;;;;-0.03;70.01;100832.66;10166547;29;20217;-73
2022/01/20 13:22:18;;;;;;;14.93;6.57;;;;;;;-0.88;70.33;100706.13;10191768;29;20044;-73
2022/01/20 13:27:19;;;;;;;8.07;5.50;;;;;;;-0.95;70.56;100703.03;10172184;29;20166;-72
2022/01/20 13:32:20;;;;;;;10.60;5.55;;;;;;;-0.89;71.61;100727.09;10166318;29;20048;-74
2022/01/20 13:37:21;;;;;;;11.27;6.80;;;;;;;-0.22;71.65;100840.72;10165646;29;20036;-74
2022/01/20 13:47:27;;;;;;;10.15;6.18;;;;;;;-0.34;73.32;100846.63;10169088;29;20044;-72
2022/01/20 13:52:38;;;;;;;10.35;5.88;;;;;;;-0.29;74.61;100844.63;10169762;29;20453;-72
2022/01/20 13:57:41;;;;;;;11.93;6.57;;;;;;;-0.50;73.84;100810.97;10164401;29;20536;-72
2022/01/20 14:02:47;;;;;;;9.10;5.93;;;;;;;-0.22;74.32;100864.22;10171252;29;20043;-71
2022/01/20 14:07:48;;;;;;;9.82;5.75;;;;;;;-0.09;74.38;100880.91;10177182;29;20048;-73
2022/01/20 14:12:49;;;;;;;8.88;5.45;;;;;;;-1.15;74.82;100708.50;10178705;29;20424;-72
2022/01/20 14:17:52;;;;;;;13.70;6.28;;;;;;;-0.74;74.59;100781.03;10160973;29;20047;-72
2022/01/20 14:22:55;;;;;;;10.77;6.38;;;;;;;-0.04;75.03;100901.53;10140673;29;20063;-73
2022/01/20 14:27:57;;;;;;;8.95;5.88;;;;;;;-0.16;75.03;100903.03;10141205;29;20051;-72
2022/01/20 14:32:59;;;;;;;10.32;6.20;;;;;;;-0.62;75.58;100840.34;10140080;29;20055;-71
2022/01/20 14:38:00;;;;;;;15.68;10.30;;;;;;;-0.59;76.31;100852.38;10140496;29;20037;-72
2022/01/20 14:43:01;;;;;;;10.15;6.60;;;;;;;-0.24;76.49;100926.13;10140097;29;20048;-72
2022/01/20 14:48:02;;;;;;;12.32;6.80;;;;;;;-0.48;76.92;100871.75;10138564;29;20084;-71
2022/01/20 14:53:03;;;;;;;13.27;7.03;;;;;;;-0.17;77.33;100924.03;10139823;29;20120;-71
2022/01/20 14:58:04;;;;;;;10.35;7.03;;;;;;;-0.53;77.07;100876.38;10139014;29;20048;-72
2022/01/20 15:03:05;;;;;;;14.88;7.15;;;;;;;-0.92;77.09;100820.22;10162380;29;20099;-70
2022/01/20 15:08:06;;;;;;;10.73;7.18;;;;;;;-1.20;77.73;100783.50;10174700;29;20083;-71
2022/01/20 15:13:07;;;;;;;15.70;8.93;;;;;;;-1.19;78.31;100791.25;10177683;29;20507;-69
2022/01/20 15:18:08;;;;;;;13.20;7.72;;;;;;;-0.39;78.25;100933.06;10136954;29;20060;-71
2022/01/20 15:23:09;;;;;;;11.05;7.30;;;;;;;-0.51;78.38;100937.16;10136731;29;20045;-72
2022/01/20 15:28:09;;;;;;;10.35;7.13;;;;;;;-0.48;78.82;100939.59;10149512;29;20099;-70
2022/01/20 15:33:11;;;;;;;14.27;7.07;;;;;;;-0.68;79.16;100921.56;10174749;29;20059;-69
2022/01/20 15:38:12;;;;;;;11.55;6.72;;;;;;;-0.90;79.47;100906.19;10173347;29;20083;-69
2022/01/20 15:43:13;;;;;;;15.82;9.77;;;;;;;-1.16;79.68;100868.47;10193973;29;20044;-68
2022/01/20 15:48:14;;;;;;;12.82;8.00;;;;;;;-1.66;79.82;100809.38;10169807;29;20050;-70
2022/01/20 15:53:15;;;;;;;10.32;7.05;;;;;;;-0.93;80.05;100930.69;10191622;29;20056;-70
2022/01/20 15:58:16;;;;;;;11.00;7.38;;;;;;;-1.05;81.22;100918.25;10167591;29;20135;-71
2022/01/20 16:03:17;;;;;;;12.55;8.80;;;;;;;-1.43;81.04;100871.56;10165562;29;20086;-70
2022/01/20 16:08:18;;;;;;;11.60;7.47;;;;;;;-0.90;81.74;100952.28;10162139;29;20139;-70
2022/01/20 16:13:19;;;;;;;14.40;9.18;;;;;;;-1.85;81.40;100810.31;10168158;29;20042;-71
2022/01/20 16:18:21;;;;;;;10.02;6.72;;;;;;;-2.03;82.08;100821.63;10162142;29;20055;-70
2022/01/20 16:23:21;;;;;;;10.52;6.50;;;;;;;-1.87;82.30;100894.63;10167973;29;20040;-68
2022/01/20 16:28:22;;;;;;;8.63;5.78;;;;;;;-2.12;82.40;100863.75;10169119;29;20401;-69
2022/01/20 16:33:23;;;;;;;10.50;6.35;;;;;;;-1.50;82.48;100981.38;10167030;29;20509;-73
2022/01/20 16:38:24;;;;;;;10.43;6.15;;;;;;;-1.73;82.65;100962.53;10164632;29;20044;-70
2022/01/20 16:43:25;;;;;;;11.10;6.22;;;;;;;-2.24;83.74;100887.72;10162416;29;20052;-72
2022/01/20 16:48:26;;;;;;;11.05;6.25;;;;;;;-1.90;84.04;100967.69;10166829;29;20086;-71
2022/01/20 16:53:28;;;;;;;11.05;6.75;;;;;;;-1.89;84.17;100971.97;10166368;29;20063;-71
2022/01/20 16:58:29;;;;;;;10.48;6.80;;;;;;;-1.85;83.96;100982.19;10163142;29;20039;-70
2022/01/20 17:03:30;;;;;;;11.00;6.70;;;;;;;-1.95;84.04;100969.66;10164497;29;20048;-71
2022/01/20 17:08:31;;;;;;;11.57;6.80;;;;;;;-2.05;84.41;100945.81;10163800;29;20086;-73
2022/01/20 17:13:32;;;;;;;17.30;9.93;;;;;;;-2.10;83.17;100933.00;10183202;29;20048;-73
2022/01/20 17:18:33;;;;;;;15.45;8.57;;;;;;;-2.04;83.50;100954.47;10159757;29;20241;-70
2022/01/20 17:23:34;;;;;;;14.80;8.43;;;;;;;-1.91;84.58;100990.28;10161972;29;20072;-73
2022/01/20 17:28:35;;;;;;;23.20;13.20;;;;;;;-2.17;83.98;100925.59;10169032;29;20043;-70
2022/01/20 17:33:36;;;;;;;19.75;11.07;;;;;;;-1.81;84.04;100982.03;10167170;29;20496;-71
2022/01/20 17:38:37;;;;;;;11.77;7.32;;;;;;;-2.25;83.06;100901.66;10172244;29;20036;-71
2022/01/20 17:43:38;;;;;;;11.48;6.60;;;;;;;-2.15;82.68;100924.59;10172263;29;20050;-70
2022/01/20 17:48:39;;;;;;;10.73;6.90;;;;;;;-1.88;82.99;100994.50;10172722;29;20044;-71
2022/01/20 17:53:39;;;;;;;10.98;6.85;;;;;;;-1.98;83.12;100973.25;10169876;29;20063;-70
2022/01/20 17:58:42;;;;;;;10.43;6.90;;;;;;;-2.06;82.77;100972.78;10169719;29;20040;-71
2022/01/20 18:03:43;;;;;;;11.45;6.18;;;;;;;-2.84;82.64;100859.28;10169625;29;20044;-70
2022/01/20 18:08:44;;;;;;;8.52;5.82;;;;;;;-2.20;82.43;100976.00;10170745;29;20071;-70
2022/01/20 18:13:45;;;;;;;11.80;6.55;;;;;;;-3.02;82.80;100866.16;10170832;29;20079;-70
2022/01/20 18:18:46;;;;;;;9.50;6.07;;;;;;;-2.74;82.80;100904.78;10170426;29;20036;-70
2022/01/20 18:23:47;;;;;;;10.07;6.32;;;;;;;-2.98;83.09;100865.13;10170846;29;20044;-70
2022/01/20 18:28:50;;;;;;;9.93;6.28;;;;;;;-2.27;82.93;100966.81;10167151;29;20051;-70
2022/01/20 18:33:51;;;;;;;9.20;6.10;;;;;;;-2.19;83.44;100984.66;10170449;29;20179;-70
2022/01/20 18:38:52;;;;;;;10.27;6.50;;;;;;;-2.42;82.97;100964.88;10170052;29;20044;-70
2022/01/20 18:43:53;;;;;;;9.55;6.13;;;;;;;-2.24;82.75;101000.50;10168347;29;20064;-71
2022/01/20 18:48:54;;;;;;;9.68;6.22;;;;;;;-2.49;82.89;100961.72;10166858;29;20106;-69
2022/01/20 18:53:56;;;;;;;9.85;6.05;;;;;;;-3.19;83.43;100851.34;10178055;29;20067;-69
2022/01/20 18:58:57;;;;;;;11.43;6.47;;;;;;;-3.37;82.94;100826.16;10178933;29;20409;-69
2022/01/20 19:03:58;;;;;;;9.70;6.35;;;;;;;-2.39;83.14;100996.00;10179559;29;20059;-69
2022/01/20 19:08:59;;;;;;;9.23;6.47;;;;;;;-2.35;83.37;100995.78;10178145;29;20092;-69
2022/01/20 19:14:00;;;;;;;10.10;6.32;;;;;;;-2.48;83.55;100968.63;10178268;29;20051;-66
2022/01/20 19:19:00;;;;;;;10.05;6.50;;;;;;;-3.19;83.45;100858.28;10178622;29;20131;-69
2022/01/20 19:24:01;;;;;;;13.93;7.13;;;;;;;-2.61;84.03;100952.72;10177304;29;20051;-69
2022/01/20 19:29:03;;;;;;;12.73;7.15;;;;;;;-2.43;83.81;100969.25;10177792;29;20036;-69
2022/01/20 19:34:04;;;;;;;12.70;8.35;;;;;;;-2.47;84.26;100966.88;10175876;29;20052;-69
2022/01/20 19:39:05;;;;;;;11.00;6.82;;;;;;;-3.14;84.03;100857.19;10177306;29;20039;-69
2022/01/20 19:44:06;;;;;;;12.90;7.65;;;;;;;-3.08;84.03;100875.09;10177163;29;20130;-69
2022/01/20 19:49:08;;;;;;;11.10;7.63;;;;;;;-2.91;84.02;100908.13;10176724;29;20127;-71
2022/01/20 19:54:09;;;;;;;13.02;7.20;;;;;;;-2.48;83.81;100973.84;10176986;29;20108;-69
2022/01/20 19:59:16;;;;;;;15.25;7.75;;;;;;;-2.44;83.75;100995.34;10176523;29;20082;-69
2022/01/20 20:04:26;;;;;;;16.50;8.63;;;;;;;-3.22;83.63;100860.09;10175711;29;20048;-69
2022/01/20 20:09:27;;;;;;;11.40;7.45;;;;;;;-3.31;83.74;100852.72;10176453;29;20040;-69
2022/01/20 20:14:28;;;;;;;11.25;7.55;;;;;;;-2.50;84.02;100985.22;10174827;29;20519;-69
2022/01/20 20:19:29;;;;;;;12.77;8.02;;;;;;;-2.55;83.54;100991.47;10176920;29;20507;-70
2022/01/20 20:24:30;;;;;;;11.82;7.95;;;;;;;-2.68;83.59;100971.28;10174706;29;20417;-70
2022/01/20 20:29:36;;;;;;;11.57;7.53;;;;;;;-2.74;83.85;100956.78;10174918;29;20427;-69
2022/01/20 20:34:38;;;;;;;15.18;7.60;;;;;;;-2.95;83.71;100927.38;10175187;29;20131;-70
2022/01/20 20:39:39;;;;;;;10.77;7.10;;;;;;;-3.42;83.53;100854.94;10175258;29;20095;-71
2022/01/20 20:44:40;;;;;;;14.90;7.25;;;;;;;-2.62;83.32;100971.00;10173308;29;20087;-70
2022/01/20 20:49:41;;;;;;;10.40;6.82;;;;;;;-3.40;83.60;100834.09;10175016;29;20092;-69
2022/01/20 20:54:43;;;;;;;11.30;6.65;;;;;;;-2.68;83.53;100964.31;10173868;29;20087;-69
2022/01/20 20:59:43;;;;;;;13.50;7.10;;;;;;;-2.76;83.60;100951.66;10175085;29;20048;-70
2022/01/20 21:04:45;;;;;;;11.82;7.22;;;;;;;-2.89;84.46;100921.06;10146901;29;20048;-69
2022/01/20 21:09:46;;;;;;;12.15;7.90;;;;;;;-2.56;84.23;100960.31;10145119;29;20037;-69
2022/01/20 21:14:47;;;;;;;15.60;8.80;;;;;;;-2.71;83.97;100950.63;10133620;29;20104;-69
2022/01/20 21:19:48;;;;;;;11.57;7.38;;;;;;;-2.50;84.19;100954.00;10135249;29;20131;-69
2022/01/20 21:24:49;;;;;;;12.98;7.70;;;;;;;-2.69;84.37;100947.03;10149453;29;20441;-69
2022/01/20 21:29:50;;;;;;;11.85;7.70;;;;;;;-2.89;83.97;100921.91;10134415;29;20037;-69
2022/01/20 21:34:51;;;;;;;12.80;7.03;;;;;;;-2.88;83.33;100977.34;10134176;29;20100;-69
2022/01/20 21:39:52;;;;;;;10.63;6.70;;;;;;;-3.12;83.30;100976.66;10133680;29;20041;-69
2022/01/20 21:44:54;;;;;;;29.50;12.32;;;;;;;-3.19;83.79;100980.44;10133641;29;20052;-71
2022/01/20 21:49:55;;;;;;;33.83;13.02;;;;;;;-3.38;83.86;100965.63;10133148;29;20036;-69
2022/01/20 21:54:56;;;;;;;27.02;11.15;;;;;;;-4.20;84.23;100856.44;10133051;29;20060;-69
2022/01/20 21:59:57;;;;;;;29.95;10.93;;;;;;;-4.42;83.76;100808.94;10134143;29;20557;-69
2022/01/20 22:04:58;;;;;;;26.13;10.27;;;;;;;-3.82;83.83;100939.69;10131837;29;20053;-69
2022/01/20 22:09:59;;;;;;;19.60;9.93;;;;;;;-4.20;84.12;100881.53;10133628;29;20037;-69
2022/01/20 22:15:00;;;;;;;16.75;9.35;;;;;;;-4.05;83.90;100932.81;10133342;29;20052;-69
2022/01/20 22:20:01;;;;;;;19.85;8.20;;;;;;;-4.59;83.53;100854.50;10132813;29;20127;-69
2022/01/20 22:25:02;;;;;;;14.68;7.65;;;;;;;-4.43;83.23;100929.97;10135758;29;20103;-69
2022/01/20 22:30:04;;;;;;;11.85;6.75;;;;;;;-4.42;83.76;100959.34;10140800;29;20059;-69
2022/01/20 22:35:05;;;;;;;14.20;6.50;;;;;;;-4.52;83.66;100979.56;10140783;29;20048;-69
2022/01/20 22:40:06;;;;;;;11.63;7.13;;;;;;;-4.72;83.39;100938.00;10139955;29;20051;-69
2022/01/20 22:45:08;;;;;;;12.23;6.47;;;;;;;-4.85;83.33;100948.78;10139734;29;20055;-69
2022/01/20 22:50:11;;;;;;;11.27;6.40;;;;;;;-5.80;83.39;100834.75;10140982;29;20052;-71
2022/01/20 22:55:13;;;;;;;12.73;7.38;;;;;;;-5.41;83.63;100948.19;10139875;29;20146;-69
2022/01/20 23:00:20;;;;;;;16.23;6.45;;;;;;;-5.39;83.75;100961.91;10139167;29;20143;-69
2022/01/20 23:05:22;;;;;;;11.90;6.70;;;;;;;-5.21;83.43;100992.38;10140186;29;20048;-69
2022/01/20 23:10:25;;;;;;;12.82;7.30;;;;;;;-5.70;83.70;100929.28;10139019;29;20052;-69
2022/01/20 23:15:32;;;;;;;11.70;6.82;;;;;;;-6.17;83.30;100843.72;10139574;29;20433;-71
2022/01/20 23:20:51;;;;;;;11.23;6.88;;;;;;;-5.42;83.14;100974.97;10139038;29;20493;-69
2022/01/20 23:26:01;;;;;;;11.38;6.25;;;;;;;-5.44;83.77;100994.88;10139748;29;20048;-69
2022/01/20 23:31:03;;;;;;;11.25;6.53;;;;;;;-6.48;83.51;100825.78;10138061;29;20496;-69
2022/01/20 23:36:05;;;;;;;14.45;7.20;;;;;;;-6.05;83.29;100897.66;10136555;29;20167;-69
2022/01/20 23:41:13;;;;;;;13.48;7.00;;;;;;;-5.71;84.19;100953.47;10138476;29;20066;-69
2022/01/20 23:51:34;;;;;;;10.65;6.55;;;;;;;-5.62;83.96;100984.22;10137742;29;20115;-69
2022/01/20 23:56:35;;;;;;;13.65;7.00;;;;;;;-5.56;84.08;100967.66;10137902;29;20049;-69
